< < Back
Terminal Aerodrome Forecast


Current Version              Previous Versions:   1  2  3  4  5  6  7  8  9  

Terminal Aerodrome Forecast

274
FTUS42 KCHS 240000 AAA
TAFCHS
TAF AMD
KCHS 240057Z 2401/2424 VRB03KT P6SM SKC
     FM240600 04009KT P6SM SKC
     FM241500 07010G17KT P6SM FEW040
     FM242000 13013G19KT P6SM SCT035=



Latest METAR

316
SAUS80 KWBC 241000
MTRCHS
METAR KCHS 240956Z 05004KT 10SM CLR 14/11 A2999 RMK AO2 SLP153
T01390106


USA.gov is the U.S. government's official web portal to all federal, state and local government web resources and services.